Maximiano — PWPM — position and weather

sailwx.info

Track history (hours):
 
Tides and Currents Weather Stations Pressure Air Temp Water Temp Dewpoint Dewpoint Depression Visibility Wind Speed Wind Dir Waves Ship Positions

Oceanographic research ship Maximiano (Brazil)

Last reported at 2017-Nov-12 06:04 UTC. Time now 2017-Nov-21 15:28 UTC.
Position S 28°10' W 047°56'.
Warning: this ship's position is 9 days out of date.

Type: Military. MMSI: 710481000.

Date/timePositionNaut miles runAvg speedWind from/ knotsBaromVisibWave heightAir tempDewpointWater temp
2017-Nov-12 06:04S 28°10' W 047°56'2 9.6
2017-Nov-12 05:54S 28°09' W 047°55'4 9.7
2017-Nov-12 05:31S 28°07' W 047°51'5 9.7
2017-Nov-12 05:00S 28°04' W 047°47'5 9.6
2017-Nov-12 04:30S 28°00' W 047°43'5 9.7
2017-Nov-12 04:00S 27°57' W 047°39'5 9.8
2017-Nov-12 03:30S 27°54' W 047°35'5 9.7
2017-Nov-12 03:00S 27°51' W 047°31'5 9.8
2017-Nov-12 02:30S 27°47' W 047°27'510.0
2017-Nov-12 02:00S 27°44' W 047°23'510.1
2017-Nov-12 01:30S 27°40' W 047°19'610.0
2017-Nov-12 00:55S 27°36' W 047°14'510.2
2017-Nov-12 00:27S 27°33' W 047°10'510.1
2017-Nov-11 23:59S 27°30' W 047°06'510.3
2017-Nov-11 23:30S 27°26' W 047°02'510.3
2017-Nov-11 23:00S 27°23' W 046°58'610.4
2017-Nov-11 22:27S 27°19' W 046°53'510.5
2017-Nov-11 22:01S 27°15' W 046°50'710.4
2017-Nov-11 21:22S 27°10' W 046°45'410.4
2017-Nov-11 21:01S 27°07' W 046°43'510.6
2017-Nov-11 20:31S 27°03' W 046°39'510.8
2017-Nov-11 20:01S 26°58' W 046°36'  
Track history (hours):
 
Tides and Currents Weather Stations Pressure Air Temp Water Temp Dewpoint Dewpoint Depression Visibility Wind Speed Wind Dir Waves Ship Positions

Oceanographic research ship Maximiano (Brazil)

Last reported at 2017-Nov-12 06:04 UTC. Time now 2017-Nov-21 15:28 UTC.
Position S 28°10' W 047°56'.
Warning: this ship's position is 9 days out of date.

Type: Military. MMSI: 710481000.

Date/timePositionNaut miles runAvg speedWind from/ knotsBaromVisibWave heightAir tempDewpointWater temp
2017-Nov-12 06:04S 28°10' W 047°56'2 9.6
2017-Nov-12 05:54S 28°09' W 047°55'4 9.7
2017-Nov-12 05:31S 28°07' W 047°51'5 9.7
2017-Nov-12 05:00S 28°04' W 047°47'5 9.6
2017-Nov-12 04:30S 28°00' W 047°43'5 9.7
2017-Nov-12 04:00S 27°57' W 047°39'5 9.8
2017-Nov-12 03:30S 27°54' W 047°35'5 9.7
2017-Nov-12 03:00S 27°51' W 047°31'5 9.8
2017-Nov-12 02:30S 27°47' W 047°27'510.0
2017-Nov-12 02:00S 27°44' W 047°23'510.1
2017-Nov-12 01:30S 27°40' W 047°19'610.0
2017-Nov-12 00:55S 27°36' W 047°14'510.2
2017-Nov-12 00:27S 27°33' W 047°10'510.1
2017-Nov-11 23:59S 27°30' W 047°06'510.3
2017-Nov-11 23:30S 27°26' W 047°02'510.3
2017-Nov-11 23:00S 27°23' W 046°58'610.4
2017-Nov-11 22:27S 27°19' W 046°53'510.5
2017-Nov-11 22:01S 27°15' W 046°50'710.4
2017-Nov-11 21:22S 27°10' W 046°45'410.4
2017-Nov-11 21:01S 27°07' W 046°43'510.6
2017-Nov-11 20:31S 27°03' W 046°39'510.8
2017-Nov-11 20:01S 26°58' W 046°36'  

Dump ship's entire track history